Time;durP1;ratioP1;P1;durP2;ratioP2;P2;SDS_P1;SDS_P2;PMS_P1;PMS_P2;Temp;Humidity;BMP_temperature;BMP_pressure;BME280_temperature;BME280_humidity;BME280_pressure;Samples;Min_cycle;Max_cycle;Signal;HPM_P1;HPM_P2
2022/01/08 00:00:01;;;;;;;8.88;5.32;;;2.30;95.70;;;;;;2080844;28;20041;-85
2022/01/08 00:01:02;;;;;;;8.65;5.50;;;2.30;95.70;;;;;;2089417;28;20040;-85
2022/01/08 00:02:03;;;;;;;8.15;5.38;;;2.30;95.80;;;;;;2096708;28;20044;-85
2022/01/08 00:03:04;;;;;;;7.47;5.47;;;2.30;95.80;;;;;;2095514;28;20044;-87
2022/01/08 00:04:05;;;;;;;7.88;5.72;;;2.30;95.80;;;;;;2090373;28;20033;-86
2022/01/08 00:05:06;;;;;;;9.25;5.45;;;2.30;95.80;;;;;;2090983;28;20087;-85
2022/01/08 00:06:08;;;;;;;7.40;5.18;;;2.30;95.80;;;;;;2090085;28;20227;-85
2022/01/08 00:07:08;;;;;;;8.45;5.65;;;2.30;95.80;;;;;;2091798;28;20039;-85
2022/01/08 00:08:09;;;;;;;8.35;5.85;;;2.30;95.80;;;;;;2097762;28;20505;-86
2022/01/08 00:09:10;;;;;;;6.85;4.97;;;2.30;95.80;;;;;;2091232;28;20057;-85
2022/01/08 00:10:11;;;;;;;8.45;5.75;;;2.30;95.80;;;;;;2091374;28;20118;-85
2022/01/08 00:11:17;;;;;;;8.63;5.82;;;2.20;95.80;;;;;;2091531;28;20041;-85
2022/01/08 00:12:18;;;;;;;7.93;5.60;;;2.20;95.70;;;;;;2099276;28;20101;-86
2022/01/08 00:13:19;;;;;;;8.23;5.40;;;2.20;95.70;;;;;;2099554;28;20082;-87
2022/01/08 00:14:22;;;;;;;8.02;6.10;;;2.20;95.70;;;;;;2095071;28;20033;-86
2022/01/08 00:15:24;;;;;;;8.77;5.53;;;2.10;95.80;;;;;;2099527;28;20069;-86
2022/01/08 00:16:24;;;;;;;7.47;5.75;;;2.10;95.80;;;;;;2099309;28;20060;-85
2022/01/08 00:17:25;;;;;;;8.45;5.80;;;2.10;95.80;;;;;;2105436;28;20041;-84
2022/01/08 00:18:26;;;;;;;7.85;5.60;;;2.10;95.80;;;;;;2089827;28;20034;-86
2022/01/08 00:19:26;;;;;;;8.95;5.88;;;2.10;95.80;;;;;;2066469;28;20026;-84
2022/01/08 00:20:30;;;;;;;8.15;5.70;;;2.10;96.10;;;;;;2074386;28;20639;-84
2022/01/08 00:21:31;;;;;;;8.20;5.65;;;2.10;95.90;;;;;;2082967;28;20129;-84
2022/01/08 00:22:31;;;;;;;7.55;5.65;;;2.00;95.80;;;;;;2081282;28;20038;-84
2022/01/08 00:23:32;;;;;;;9.10;6.13;;;2.00;95.80;;;;;;2095875;28;20047;-84
2022/01/08 00:24:32;;;;;;;7.53;5.88;;;2.00;95.80;;;;;;2098821;28;20106;-85
2022/01/08 00:25:33;;;;;;;9.00;6.10;;;2.00;95.90;;;;;;2082718;28;20104;-85
2022/01/08 00:26:34;;;;;;;8.25;5.72;;;2.00;95.90;;;;;;2082238;28;20036;-85
2022/01/08 00:27:34;;;;;;;8.77;5.55;;;2.00;95.90;;;;;;2074126;28;20500;-85
2022/01/08 00:28:35;;;;;;;7.90;5.80;;;2.00;95.90;;;;;;2079171;28;20034;-86
2022/01/08 00:29:36;;;;;;;8.57;6.60;;;1.90;95.90;;;;;;2074008;28;20124;-85
2022/01/08 00:30:36;;;;;;;7.95;5.40;;;1.90;95.90;;;;;;2073617;28;20526;-85
2022/01/08 00:31:37;;;;;;;7.75;5.05;;;2.00;95.90;;;;;;2090510;28;20072;-85
2022/01/08 00:32:38;;;;;;;8.32;5.63;;;1.90;95.90;;;;;;2091779;28;20075;-86
2022/01/08 00:33:40;;;;;;;8.32;5.63;;;1.90;95.90;;;;;;2097691;28;20033;-85
2022/01/08 00:34:41;;;;;;;8.40;6.05;;;1.90;95.90;;;;;;2098655;28;20086;-85
2022/01/08 00:35:42;;;;;;;7.70;5.65;;;1.90;95.90;;;;;;2093185;28;20025;-86
2022/01/08 00:36:43;;;;;;;7.75;5.38;;;1.90;95.90;;;;;;2088261;28;20467;-86
2022/01/08 00:37:44;;;;;;;8.52;5.53;;;1.90;95.90;;;;;;2090236;28;20131;-86
2022/01/08 00:38:45;;;;;;;9.18;6.10;;;1.90;95.90;;;;;;2098838;28;20035;-85
2022/01/08 00:39:47;;;;;;;9.10;5.75;;;1.90;95.90;;;;;;2090368;28;20037;-85
2022/01/08 00:40:48;;;;;;;7.95;5.50;;;1.80;95.90;;;;;;2097042;28;20451;-85
2022/01/08 00:41:48;;;;;;;8.65;5.80;;;1.80;95.90;;;;;;2096138;28;20064;-85
2022/01/08 00:42:49;;;;;;;8.95;5.95;;;1.80;95.90;;;;;;2091207;28;20041;-84
2022/01/08 00:43:49;;;;;;;9.18;6.05;;;1.80;96.20;;;;;;2090713;28;20044;-85
2022/01/08 00:44:50;;;;;;;9.40;5.90;;;1.80;96.00;;;;;;2090353;28;20131;-85
2022/01/08 00:45:51;;;;;;;8.52;5.82;;;1.80;96.00;;;;;;2078600;28;20495;-86
2022/01/08 00:46:52;;;;;;;8.30;5.95;;;1.70;96.00;;;;;;2081918;28;20495;-86
2022/01/08 00:47:52;;;;;;;8.18;5.65;;;1.70;96.00;;;;;;2081740;28;20052;-86
2022/01/08 00:48:53;;;;;;;8.57;5.85;;;1.70;96.00;;;;;;2073912;28;20420;-86
2022/01/08 00:49:54;;;;;;;8.43;6.13;;;1.70;96.00;;;;;;2078929;28;20092;-86
2022/01/08 00:50:54;;;;;;;8.00;5.57;;;1.70;96.00;;;;;;2073569;28;20534;-86
2022/01/08 00:51:55;;;;;;;7.20;5.38;;;1.70;96.00;;;;;;2081262;28;20041;-86
2022/01/08 00:52:56;;;;;;;9.32;5.70;;;1.70;96.00;;;;;;2090978;28;20049;-85
2022/01/08 00:53:56;;;;;;;8.55;6.72;;;1.70;96.00;;;;;;2087383;28;20033;-85
2022/01/08 00:54:57;;;;;;;9.15;6.25;;;1.70;96.30;;;;;;2081560;28;20045;-86
2022/01/08 00:55:57;;;;;;;8.07;6.00;;;1.70;96.00;;;;;;2074559;28;20330;-86
2022/01/08 00:56:58;;;;;;;7.35;5.68;;;1.70;96.00;;;;;;2090090;28;20406;-85
2022/01/08 00:57:59;;;;;;;9.50;5.85;;;1.70;96.20;;;;;;2090142;28;20037;-86
2022/01/08 00:58:59;;;;;;;8.80;5.95;;;1.70;96.00;;;;;;2081933;28;20079;-85
2022/01/08 01:00:00;;;;;;;8.43;6.10;;;1.70;96.00;;;;;;2081952;28;20030;-86
2022/01/08 01:01:01;;;;;;;8.38;6.00;;;1.70;96.00;;;;;;2080932;28;20132;-86
2022/01/08 01:02:03;;;;;;;7.95;5.60;;;1.70;96.00;;;;;;2081578;28;20030;-86
2022/01/08 01:03:04;;;;;;;7.95;5.70;;;1.70;96.00;;;;;;2089818;28;20124;-86
2022/01/08 01:04:04;;;;;;;8.02;5.78;;;1.70;96.00;;;;;;2090086;28;20055;-86
2022/01/08 01:05:07;;;;;;;9.02;6.13;;;1.70;95.90;;;;;;2081885;28;20120;-86
2022/01/08 01:06:07;;;;;;;9.55;6.35;;;1.70;96.20;;;;;;2074382;28;20061;-86
2022/01/08 01:07:08;;;;;;;8.98;6.55;;;1.60;95.90;;;;;;2075190;28;20030;-85
2022/01/08 01:08:08;;;;;;;9.48;6.15;;;1.60;95.90;;;;;;2089807;28;20056;-86
2022/01/08 01:09:09;;;;;;;8.60;6.05;;;1.60;95.90;;;;;;2089770;28;20033;-86
2022/01/08 01:10:10;;;;;;;9.95;6.25;;;1.60;95.90;;;;;;2088852;28;20029;-86
2022/01/08 01:11:11;;;;;;;9.55;6.18;;;1.60;95.90;;;;;;2086471;28;20142;-86
2022/01/08 01:12:13;;;;;;;8.73;6.30;;;1.60;95.90;;;;;;2092447;28;20560;-86
2022/01/08 01:13:13;;;;;;;9.02;6.57;;;1.60;95.90;;;;;;2089993;28;20041;-86
2022/01/08 01:14:14;;;;;;;8.80;6.25;;;1.60;95.90;;;;;;2090461;28;20075;-86
2022/01/08 01:15:17;;;;;;;9.82;6.10;;;1.60;95.90;;;;;;2090045;28;20037;-87
2022/01/08 01:16:18;;;;;;;9.68;6.70;;;1.60;95.90;;;;;;2082099;28;20056;-86
2022/01/08 01:17:19;;;;;;;9.10;6.25;;;1.60;95.90;;;;;;2089894;28;20041;-86
2022/01/08 01:18:24;;;;;;;10.02;6.60;;;1.60;95.90;;;;;;2092711;28;20368;-85
2022/01/08 01:19:26;;;;;;;8.52;6.18;;;1.70;95.90;;;;;;2080734;28;20034;-85
2022/01/08 01:20:26;;;;;;;8.25;6.10;;;1.60;95.90;;;;;;2076564;28;20095;-87
2022/01/08 01:21:27;;;;;;;8.70;6.43;;;1.60;95.90;;;;;;2083270;28;20049;-87
2022/01/08 01:22:38;;;;;;;8.18;6.05;;;1.60;95.90;;;;;;2096025;28;20114;-86
2022/01/08 01:23:42;;;;;;;8.68;6.35;;;1.60;95.90;;;;;;2083956;28;20503;-87
2022/01/08 01:24:43;;;;;;;9.38;6.32;;;1.60;95.90;;;;;;2096089;28;20036;-87
2022/01/08 01:25:53;;;;;;;8.43;6.18;;;1.60;95.90;;;;;;2089703;28;20048;-87
2022/01/08 01:29:24;;;;;;;9.02;6.22;;;1.60;95.90;;;;;;2082542;28;20435;-86
2022/01/08 01:30:39;;;;;;;8.10;5.95;;;1.60;95.90;;;;;;2091069;28;20515;-86
2022/01/08 01:41:14;;;;;;;9.18;5.85;;;1.50;95.80;;;;;;2086429;28;20136;-86
2022/01/08 01:42:51;;;;;;;9.85;6.15;;;1.50;95.80;;;;;;2086948;28;20069;-86
2022/01/08 01:47:37;;;;;;;7.85;5.70;;;1.50;95.80;;;;;;2097696;28;20033;-86
2022/01/08 01:48:38;;;;;;;9.00;5.97;;;1.50;95.80;;;;;;2098597;28;20127;-84
2022/01/08 01:49:42;;;;;;;9.50;6.25;;;1.50;95.80;;;;;;2095256;28;20032;-85
2022/01/08 01:50:43;;;;;;;8.98;5.80;;;1.50;95.90;;;;;;2098598;28;20455;-85
2022/01/08 01:51:43;;;;;;;8.50;6.00;;;1.50;95.90;;;;;;2076934;28;20046;-85
2022/01/08 01:52:44;;;;;;;8.45;6.03;;;1.50;95.90;;;;;;2088856;28;20088;-86
2022/01/08 01:53:45;;;;;;;10.15;6.03;;;1.50;95.90;;;;;;2086774;28;20063;-86
2022/01/08 01:54:46;;;;;;;7.95;6.18;;;1.50;95.90;;;;;;2086941;28;20052;-86
2022/01/08 01:55:49;;;;;;;9.75;6.32;;;1.50;95.90;;;;;;2092654;28;20048;-86
2022/01/08 01:56:50;;;;;;;9.65;6.25;;;1.50;95.90;;;;;;2089734;28;20487;-86
2022/01/08 01:57:52;;;;;;;8.90;6.10;;;1.40;95.90;;;;;;2081945;28;20131;-86
2022/01/08 01:58:52;;;;;;;8.82;6.25;;;1.40;95.90;;;;;;2089658;28;20396;-86
2022/01/08 01:59:53;;;;;;;9.35;6.20;;;1.40;95.90;;;;;;2089118;28;20048;-86
2022/01/08 02:00:54;;;;;;;10.55;6.65;;;1.40;95.90;;;;;;2075181;28;20044;-86
2022/01/08 02:01:55;;;;;;;9.50;5.93;;;1.40;96.00;;;;;;2086986;28;20446;-86
2022/01/08 02:02:55;;;;;;;7.82;6.30;;;1.40;96.00;;;;;;2089588;28;20029;-86
2022/01/08 02:03:56;;;;;;;10.30;5.95;;;1.40;96.00;;;;;;2093101;28;20118;-86
2022/01/08 02:04:57;;;;;;;8.13;6.00;;;1.40;96.00;;;;;;2090065;28;20068;-86
2022/01/08 02:05:58;;;;;;;7.70;5.82;;;1.40;96.00;;;;;;2090437;28;20128;-86
2022/01/08 02:06:58;;;;;;;8.35;6.32;;;1.40;96.00;;;;;;2089713;28;20099;-86
2022/01/08 02:07:59;;;;;;;8.20;5.80;;;1.40;96.00;;;;;;2091993;28;20037;-87
2022/01/08 02:09:00;;;;;;;9.45;6.25;;;1.40;96.00;;;;;;2081333;28;20038;-87
2022/01/08 02:10:00;;;;;;;9.60;6.38;;;1.40;96.20;;;;;;2079484;28;20076;-86
2022/01/08 02:11:01;;;;;;;9.48;5.97;;;1.40;96.00;;;;;;2080499;28;20104;-86
2022/01/08 02:12:17;;;;;;;9.90;6.35;;;1.40;96.00;;;;;;2081149;28;20034;-87
2022/01/08 02:13:26;;;;;;;9.85;6.45;;;1.40;96.00;;;;;;2098041;28;20052;-86
2022/01/08 02:14:29;;;;;;;9.40;6.68;;;1.40;96.00;;;;;;2094124;28;20448;-87
2022/01/08 02:15:30;;;;;;;8.75;6.38;;;1.40;95.90;;;;;;2089130;28;20035;-86
2022/01/08 02:16:31;;;;;;;9.70;6.40;;;1.40;96.00;;;;;;2089550;28;20427;-86
2022/01/08 02:17:32;;;;;;;9.57;6.68;;;1.40;95.90;;;;;;2090119;28;20036;-86
2022/01/08 02:18:34;;;;;;;10.40;6.28;;;1.40;95.90;;;;;;2092181;28;20029;-86
2022/01/08 02:19:34;;;;;;;7.72;6.10;;;1.30;95.90;;;;;;2096553;28;20035;-85
2022/01/08 02:20:35;;;;;;;8.50;6.45;;;1.30;95.90;;;;;;2080542;28;20034;-84
2022/01/08 02:21:36;;;;;;;9.55;6.50;;;1.30;96.00;;;;;;2068725;28;20038;-83
2022/01/08 02:22:37;;;;;;;9.63;6.43;;;1.30;96.00;;;;;;2074606;28;20121;-84
2022/01/08 02:23:37;;;;;;;8.73;6.45;;;1.30;96.00;;;;;;2082897;28;20500;-84
2022/01/08 02:24:38;;;;;;;9.23;6.50;;;1.30;96.00;;;;;;2089348;28;20084;-84
2022/01/08 02:25:38;;;;;;;9.30;6.28;;;1.30;96.00;;;;;;2088881;28;20041;-84
2022/01/08 02:26:39;;;;;;;9.52;6.82;;;1.30;95.90;;;;;;2092950;28;20037;-86
2022/01/08 02:27:40;;;;;;;11.02;6.80;;;1.30;95.90;;;;;;2089068;28;20455;-87
2022/01/08 02:28:41;;;;;;;9.57;6.68;;;1.20;95.90;;;;;;2072909;28;20030;-85
2022/01/08 02:29:43;;;;;;;9.65;6.57;;;1.20;95.90;;;;;;2071457;28;20113;-85
2022/01/08 02:30:44;;;;;;;8.75;6.28;;;1.20;95.90;;;;;;2080545;28;21136;-84
2022/01/08 02:32:00;;;;;;;9.48;6.07;;;1.20;95.90;;;;;;2082828;28;20120;-86
2022/01/08 02:33:01;;;;;;;11.60;6.63;;;1.20;95.90;;;;;;2097299;28;20055;-85
2022/01/08 02:34:02;;;;;;;8.75;6.80;;;1.20;95.90;;;;;;2088840;28;20492;-85
2022/01/08 02:35:03;;;;;;;10.38;6.63;;;1.20;95.90;;;;;;2081171;28;20136;-84
2022/01/08 02:36:06;;;;;;;8.15;6.43;;;1.20;95.90;;;;;;2080044;28;20038;-85
2022/01/08 02:37:08;;;;;;;10.07;6.85;;;1.10;95.90;;;;;;2081391;28;20107;-86
2022/01/08 02:38:08;;;;;;;11.73;7.32;;;1.10;95.90;;;;;;2088416;28;20047;-86
2022/01/08 02:39:09;;;;;;;11.20;7.20;;;1.10;95.90;;;;;;2081461;28;20581;-85
2022/01/08 02:40:11;;;;;;;8.88;7.10;;;1.10;96.00;;;;;;2080732;28;20109;-86
2022/01/08 02:41:12;;;;;;;10.77;7.28;;;1.10;96.00;;;;;;2089562;28;20037;-86
2022/01/08 02:42:17;;;;;;;11.00;7.10;;;1.10;96.00;;;;;;2096612;28;20036;-85
2022/01/08 02:43:18;;;;;;;11.07;6.97;;;1.10;96.00;;;;;;2095030;28;20074;-86
2022/01/08 02:44:18;;;;;;;10.15;6.60;;;1.10;96.00;;;;;;2097709;28;20569;-86
2022/01/08 02:45:21;;;;;;;9.30;6.72;;;1.10;96.00;;;;;;2094376;28;20567;-86
2022/01/08 02:46:22;;;;;;;11.68;7.15;;;1.00;96.00;;;;;;2089391;28;20132;-85
2022/01/08 02:47:22;;;;;;;9.45;7.03;;;1.10;96.00;;;;;;2088574;28;20481;-85
2022/01/08 02:48:23;;;;;;;9.30;6.85;;;1.10;96.00;;;;;;2091818;28;20055;-86
2022/01/08 02:49:24;;;;;;;10.52;7.25;;;1.10;96.00;;;;;;2090006;28;20029;-85
2022/01/08 02:50:25;;;;;;;9.95;6.70;;;1.10;96.00;;;;;;2095173;28;20037;-85
2022/01/08 02:51:25;;;;;;;10.18;6.85;;;1.10;96.00;;;;;;2086972;28;20049;-86
2022/01/08 02:52:26;;;;;;;9.90;7.25;;;1.10;96.00;;;;;;2090024;28;20368;-86
2022/01/08 02:53:27;;;;;;;9.32;6.90;;;1.10;96.00;;;;;;2089451;28;20037;-86
2022/01/08 02:54:28;;;;;;;10.27;6.80;;;1.20;96.00;;;;;;2089131;28;20041;-85
2022/01/08 02:55:28;;;;;;;10.77;7.07;;;1.20;96.00;;;;;;2089288;28;20423;-86
2022/01/08 02:56:29;;;;;;;9.60;6.72;;;1.20;96.00;;;;;;2096780;28;20036;-86
2022/01/08 02:57:30;;;;;;;11.10;6.32;;;1.20;96.00;;;;;;2098306;28;20033;-86
2022/01/08 02:58:30;;;;;;;9.13;7.00;;;1.30;96.00;;;;;;2092980;28;20029;-86
2022/01/08 02:59:32;;;;;;;11.40;6.88;;;1.30;96.00;;;;;;2094995;28;20128;-85
2022/01/08 03:00:33;;;;;;;9.55;6.68;;;1.30;96.00;;;;;;2091285;28;20043;-86
2022/01/08 03:01:35;;;;;;;9.43;6.60;;;1.30;96.00;;;;;;2096994;28;20043;-86
2022/01/08 03:02:41;;;;;;;9.35;7.03;;;1.30;95.90;;;;;;2094872;28;20094;-85
2022/01/08 03:03:42;;;;;;;8.55;6.28;;;1.30;95.90;;;;;;2089888;28;20072;-86
2022/01/08 03:04:44;;;;;;;8.90;6.88;;;1.30;95.90;;;;;;2092818;28;20033;-85
2022/01/08 03:05:45;;;;;;;9.55;7.03;;;1.30;95.80;;;;;;2072845;28;20049;-86
2022/01/08 03:06:45;;;;;;;10.20;6.78;;;1.40;95.90;;;;;;2082767;28;20103;-86
2022/01/08 03:07:49;;;;;;;9.82;6.97;;;1.40;95.90;;;;;;2092821;28;20072;-86
2022/01/08 03:08:49;;;;;;;9.50;7.28;;;1.40;95.80;;;;;;2081304;28;20404;-86
2022/01/08 03:09:57;;;;;;;10.43;7.35;;;1.40;95.90;;;;;;2095373;28;20092;-86
2022/01/08 03:10:57;;;;;;;9.57;6.97;;;1.40;95.80;;;;;;2088414;28;20191;-87
2022/01/08 03:11:58;;;;;;;8.52;6.72;;;1.40;95.80;;;;;;2089936;28;20040;-85
2022/01/08 03:12:58;;;;;;;10.40;7.13;;;1.50;95.80;;;;;;2089617;28;20040;-85
2022/01/08 03:13:59;;;;;;;11.38;6.93;;;1.50;96.10;;;;;;2089385;28;20033;-85
2022/01/08 03:15:00;;;;;;;9.52;6.70;;;1.50;95.80;;;;;;2089095;28;20041;-85
2022/01/08 03:16:00;;;;;;;9.75;6.90;;;1.50;95.80;;;;;;2097401;28;20041;-86
2022/01/08 03:17:01;;;;;;;10.85;6.50;;;1.50;95.80;;;;;;2097615;28;20032;-85
2022/01/08 03:18:03;;;;;;;10.63;6.65;;;1.60;95.80;;;;;;2097186;28;20115;-85
2022/01/08 03:19:09;;;;;;;9.52;6.20;;;1.60;95.80;;;;;;2096150;28;20123;-86
2022/01/08 03:20:14;;;;;;;10.85;6.47;;;1.60;95.80;;;;;;2097533;28;20048;-85
2022/01/08 03:21:18;;;;;;;9.75;6.32;;;1.70;95.80;;;;;;2089152;28;20038;-85
2022/01/08 03:22:19;;;;;;;7.82;5.82;;;1.70;95.80;;;;;;2090662;28;20045;-85
2022/01/08 03:23:20;;;;;;;9.10;6.38;;;1.60;95.80;;;;;;2089417;28;20071;-85
2022/01/08 03:24:27;;;;;;;8.50;5.63;;;1.70;95.80;;;;;;2088932;28;20518;-85
2022/01/08 03:25:29;;;;;;;9.07;6.40;;;1.70;95.80;;;;;;2089722;28;20037;-85
2022/01/08 03:26:30;;;;;;;8.65;5.57;;;1.70;95.80;;;;;;2091731;28;20059;-85
2022/01/08 03:27:33;;;;;;;9.13;5.60;;;1.70;95.80;;;;;;2097630;28;20028;-86
2022/01/08 03:28:34;;;;;;;7.28;5.70;;;1.70;95.70;;;;;;2096383;28;20542;-85
2022/01/08 03:29:35;;;;;;;9.02;6.15;;;1.80;95.80;;;;;;2092577;28;20044;-85
2022/01/08 03:30:35;;;;;;;9.30;5.97;;;1.80;95.80;;;;;;2097879;28;20082;-86
2022/01/08 03:31:36;;;;;;;9.50;5.93;;;1.80;95.80;;;;;;2095540;28;20112;-85
2022/01/08 03:32:37;;;;;;;8.95;5.57;;;1.80;95.80;;;;;;2093318;28;20037;-86
2022/01/08 03:33:38;;;;;;;8.52;5.70;;;1.80;95.70;;;;;;2081292;28;20064;-85
2022/01/08 03:34:39;;;;;;;8.52;5.88;;;1.80;95.70;;;;;;2073655;28;20117;-85
2022/01/08 03:35:39;;;;;;;9.75;5.75;;;1.80;95.70;;;;;;2089001;28;20025;-86
2022/01/08 03:36:40;;;;;;;10.25;6.22;;;1.80;96.00;;;;;;2077113;28;20049;-85
2022/01/08 03:37:41;;;;;;;8.60;5.63;;;1.80;95.70;;;;;;2088912;28;20032;-85
2022/01/08 03:38:42;;;;;;;7.85;5.80;;;1.80;95.70;;;;;;2100977;28;20041;-85
2022/01/08 03:39:42;;;;;;;8.20;5.75;;;1.80;95.70;;;;;;2089366;28;20090;-86
2022/01/08 03:40:43;;;;;;;8.38;5.55;;;1.80;95.80;;;;;;2089819;28;20049;-86
2022/01/08 03:41:45;;;;;;;8.95;6.30;;;1.80;95.80;;;;;;2091992;28;20503;-86
2022/01/08 03:42:45;;;;;;;8.52;5.93;;;1.70;95.80;;;;;;2091111;28;20044;-86
2022/01/08 03:43:46;;;;;;;7.82;5.72;;;1.80;95.80;;;;;;2086393;28;20455;-86
2022/01/08 03:44:47;;;;;;;8.57;5.60;;;1.80;95.80;;;;;;2099238;28;20036;-86
2022/01/08 03:45:48;;;;;;;9.05;5.60;;;1.80;95.80;;;;;;2103714;28;20048;-85
2022/01/08 03:46:49;;;;;;;9.15;6.03;;;1.80;95.80;;;;;;2099748;28;20093;-85
2022/01/08 03:48:43;;;;;;;9.20;5.22;;;1.70;95.80;;;;;;2099613;28;20132;-86
2022/01/08 03:49:24;;;;;;;8.25;5.60;;;1.80;95.80;;;;;;2092324;28;20032;-85
2022/01/08 03:50:24;;;;;;;8.88;5.50;;;1.80;95.80;;;;;;2098740;28;20032;-85
2022/01/08 03:51:25;;;;;;;9.15;5.28;;;1.70;95.80;;;;;;2089504;28;20135;-85
2022/01/08 03:52:27;;;;;;;7.28;5.00;;;1.70;95.80;;;;;;2090469;28;20060;-86
2022/01/08 03:53:28;;;;;;;9.52;5.45;;;1.70;95.80;;;;;;2090418;28;20041;-85
2022/01/08 03:54:28;;;;;;;7.88;5.20;;;1.70;95.80;;;;;;2082174;28;20038;-85
2022/01/08 03:55:29;;;;;;;8.57;5.65;;;1.70;95.80;;;;;;2090562;28;20522;-85
2022/01/08 03:56:29;;;;;;;8.50;5.47;;;1.70;95.80;;;;;;2091075;28;20076;-85
2022/01/08 03:57:30;;;;;;;7.82;5.32;;;1.60;95.80;;;;;;2090415;28;20352;-85
2022/01/08 03:58:31;;;;;;;8.40;5.15;;;1.60;95.80;;;;;;2094717;28;20064;-86
2022/01/08 03:59:32;;;;;;;7.15;5.13;;;1.60;95.80;;;;;;2095067;28;20353;-85
2022/01/08 04:00:32;;;;;;;8.65;5.55;;;1.60;95.90;;;;;;2091116;28;20037;-85
2022/01/08 04:01:33;;;;;;;8.32;5.38;;;1.60;95.90;;;;;;2083299;28;20037;-85
2022/01/08 04:02:33;;;;;;;9.20;5.70;;;1.60;95.90;;;;;;2090554;28;20162;-86
2022/01/08 04:03:34;;;;;;;7.70;5.13;;;1.60;95.90;;;;;;2098788;28;20114;-86
2022/01/08 04:04:35;;;;;;;7.80;5.47;;;1.60;95.90;;;;;;2091711;28;20430;-85
2022/01/08 04:05:35;;;;;;;6.57;5.18;;;1.60;95.90;;;;;;2084530;28;20044;-86
2022/01/08 04:06:36;;;;;;;6.85;4.90;;;1.50;95.90;;;;;;2082403;28;20041;-85
2022/01/08 04:07:37;;;;;;;7.95;5.15;;;1.50;95.90;;;;;;2065939;28;20117;-85
2022/01/08 04:08:37;;;;;;;9.02;5.07;;;1.50;96.20;;;;;;2086057;28;20038;-85
2022/01/08 04:09:38;;;;;;;8.20;5.60;;;1.50;95.90;;;;;;2082020;28;20492;-86
2022/01/08 04:10:39;;;;;;;8.55;5.57;;;1.50;95.90;;;;;;2076823;28;20046;-85
2022/01/08 04:11:39;;;;;;;8.90;5.40;;;1.50;96.00;;;;;;2082091;28;20029;-85
2022/01/08 04:12:44;;;;;;;9.00;5.30;;;1.50;96.00;;;;;;2090592;28;20037;-85
2022/01/08 04:13:45;;;;;;;8.57;5.43;;;1.50;96.00;;;;;;2091248;28;20025;-86
2022/01/08 04:15:03;;;;;;;7.60;5.10;;;1.50;96.00;;;;;;2095815;28;20082;-85
2022/01/08 04:16:14;;;;;;;7.78;5.15;;;1.50;96.00;;;;;;2091783;28;20041;-85
2022/01/08 04:17:16;;;;;;;7.72;5.15;;;1.50;96.00;;;;;;2093511;28;20043;-83
2022/01/08 04:18:17;;;;;;;7.07;5.03;;;1.40;95.90;;;;;;2090771;28;20064;-83
2022/01/08 04:19:19;;;;;;;8.75;5.00;;;1.40;95.90;;;;;;2086884;28;20076;-83
2022/01/08 04:20:21;;;;;;;8.82;5.30;;;1.40;95.90;;;;;;2083872;28;20076;-83
2022/01/08 04:22:35;;;;;;;7.40;5.28;;;1.40;96.00;;;;;;2092684;28;20033;-85
2022/01/08 04:23:36;;;;;;;8.00;5.15;;;1.40;96.00;;;;;;2091750;28;20131;-85
2022/01/08 04:24:38;;;;;;;9.32;4.97;;;1.30;96.00;;;;;;2098698;28;20033;-85
2022/01/08 04:25:38;;;;;;;6.80;4.70;;;1.30;96.00;;;;;;2098537;28;20044;-84
2022/01/08 04:26:39;;;;;;;6.60;4.88;;;1.40;96.00;;;;;;2098397;28;20059;-85
2022/01/08 04:27:40;;;;;;;7.80;5.40;;;1.30;96.00;;;;;;2081684;28;20041;-85
2022/01/08 04:28:41;;;;;;;7.28;4.75;;;1.30;96.00;;;;;;2072539;28;20527;-85
2022/01/08 04:29:41;;;;;;;6.90;5.10;;;1.30;96.00;;;;;;2081405;28;20533;-85
2022/01/08 04:30:42;;;;;;;9.13;5.00;;;1.30;96.00;;;;;;2073759;28;20042;-86
2022/01/08 04:31:43;;;;;;;7.97;5.53;;;1.20;96.00;;;;;;2087230;28;20200;-85
2022/01/08 04:32:44;;;;;;;7.07;5.10;;;1.30;96.00;;;;;;2095650;28;20644;-85
2022/01/08 04:33:45;;;;;;;6.95;4.78;;;1.20;96.00;;;;;;2094978;28;20043;-84
2022/01/08 04:34:45;;;;;;;7.20;4.90;;;1.30;96.00;;;;;;2091932;28;20456;-85
2022/01/08 04:35:46;;;;;;;7.32;5.25;;;1.30;96.00;;;;;;2090878;28;20087;-85
2022/01/08 04:36:47;;;;;;;7.63;5.30;;;1.20;96.00;;;;;;2092611;28;20399;-85
2022/01/08 04:37:47;;;;;;;8.07;5.13;;;1.20;96.00;;;;;;2095081;28;20044;-85
2022/01/08 04:38:48;;;;;;;6.75;4.97;;;1.20;96.00;;;;;;2097114;28;20536;-85
2022/01/08 04:39:48;;;;;;;7.07;5.20;;;1.20;96.00;;;;;;2099107;28;20457;-85
2022/01/08 04:40:49;;;;;;;6.25;4.78;;;1.20;96.00;;;;;;2093829;28;20112;-85
2022/01/08 04:41:50;;;;;;;8.52;5.07;;;1.20;96.00;;;;;;2081866;28;20044;-85
2022/01/08 04:42:50;;;;;;;7.82;4.90;;;1.20;96.00;;;;;;2089522;28;20037;-86
2022/01/08 04:43:51;;;;;;;8.10;5.55;;;1.20;96.00;;;;;;2090090;28;20033;-85
2022/01/08 04:44:54;;;;;;;7.32;4.78;;;1.20;96.00;;;;;;2081428;28;20096;-85
2022/01/08 04:45:55;;;;;;;8.32;5.10;;;1.10;96.00;;;;;;2081374;28;20130;-85
2022/01/08 04:46:56;;;;;;;9.18;5.45;;;1.10;96.00;;;;;;2082640;28;20044;-85
2022/01/08 04:47:58;;;;;;;8.23;4.90;;;1.10;96.00;;;;;;2089474;28;20519;-85
2022/01/08 04:48:59;;;;;;;8.88;5.40;;;1.10;96.00;;;;;;2090274;28;20029;-86
2022/01/08 04:49:59;;;;;;;7.72;5.55;;;1.10;96.00;;;;;;2093361;28;20505;-86
2022/01/08 04:51:00;;;;;;;8.10;5.10;;;1.10;96.00;;;;;;2089965;28;20057;-86
2022/01/08 04:52:01;;;;;;;9.40;5.88;;;1.00;95.90;;;;;;2092235;28;20029;-85
2022/01/08 04:53:01;;;;;;;6.45;5.18;;;1.00;95.90;;;;;;2090036;28;20507;-86
2022/01/08 04:54:02;;;;;;;9.00;5.90;;;1.00;95.90;;;;;;2088042;28;20049;-85
2022/01/08 04:55:03;;;;;;;8.10;5.15;;;1.00;96.00;;;;;;2089752;28;20039;-85
2022/01/08 04:56:04;;;;;;;7.15;4.93;;;1.00;96.00;;;;;;2090279;28;20033;-86
2022/01/08 04:57:05;;;;;;;7.35;5.30;;;1.00;96.00;;;;;;2094216;28;20478;-85
2022/01/08 04:58:06;;;;;;;9.32;5.45;;;1.00;96.00;;;;;;2090959;28;20402;-84
2022/01/08 04:59:06;;;;;;;7.97;5.15;;;1.00;96.00;;;;;;2090213;28;20044;-85
2022/01/08 05:00:08;;;;;;;7.72;5.40;;;1.00;96.00;;;;;;2085474;28;20132;-85
2022/01/08 05:01:13;;;;;;;7.13;5.30;;;1.00;96.10;;;;;;2081700;28;20109;-86
2022/01/08 05:02:13;;;;;;;8.27;5.53;;;1.00;96.10;;;;;;2090860;28;20048;-85
2022/01/08 05:03:14;;;;;;;6.85;5.20;;;1.00;96.10;;;;;;2100122;28;20036;-85
2022/01/08 05:04:14;;;;;;;7.55;5.20;;;1.00;96.30;;;;;;2107612;28;20047;-85
2022/01/08 05:05:16;;;;;;;6.50;4.60;;;1.00;96.10;;;;;;2096456;28;20037;-85
2022/01/08 05:06:16;;;;;;;7.50;4.97;;;1.00;96.10;;;;;;2093594;28;20037;-85
2022/01/08 05:07:17;;;;;;;8.13;5.22;;;1.00;96.10;;;;;;2098207;28;20050;-85
2022/01/08 05:08:18;;;;;;;7.97;5.47;;;1.00;96.30;;;;;;2092356;28;20040;-84
2022/01/08 05:09:18;;;;;;;7.35;5.05;;;1.00;96.10;;;;;;2098426;28;20036;-85
2022/01/08 05:10:19;;;;;;;8.63;5.00;;;1.00;96.00;;;;;;2089422;28;20445;-85
2022/01/08 05:11:20;;;;;;;7.72;5.22;;;0.90;96.00;;;;;;2089419;28;20052;-85
2022/01/08 05:12:20;;;;;;;7.97;5.60;;;1.00;96.10;;;;;;2097229;28;20032;-85
2022/01/08 05:13:21;;;;;;;7.05;5.25;;;1.00;96.10;;;;;;2073215;28;20496;-86
2022/01/08 05:14:23;;;;;;;9.95;5.43;;;0.90;96.00;;;;;;2088376;28;20431;-86
2022/01/08 05:15:23;;;;;;;7.63;5.22;;;0.90;96.00;;;;;;2081698;28;20045;-84
2022/01/08 05:16:27;;;;;;;8.35;4.72;;;0.90;96.00;;;;;;2081815;28;20507;-85
2022/01/08 05:17:33;;;;;;;7.80;5.18;;;1.00;96.10;;;;;;2087529;28;20041;-85
2022/01/08 05:18:34;;;;;;;8.02;4.85;;;0.90;96.00;;;;;;2083070;28;20049;-84
2022/01/08 05:19:43;;;;;;;6.53;4.90;;;0.90;96.00;;;;;;2087739;28;20491;-86
2022/01/08 05:20:53;;;;;;;6.90;4.85;;;0.90;96.00;;;;;;2091322;28;20855;-85
2022/01/08 05:21:57;;;;;;;7.07;4.70;;;0.90;96.00;;;;;;2105771;28;20032;-85
2022/01/08 05:23:01;;;;;;;6.75;4.63;;;0.90;96.00;;;;;;2096089;28;20521;-85
2022/01/08 05:24:01;;;;;;;7.82;5.32;;;0.90;96.00;;;;;;2098259;28;20040;-84
2022/01/08 05:25:02;;;;;;;7.75;5.22;;;0.90;96.00;;;;;;2100798;28;20462;-85
2022/01/08 05:26:03;;;;;;;6.75;5.15;;;0.90;96.00;;;;;;2099967;28;20455;-86
2022/01/08 05:27:06;;;;;;;7.25;4.93;;;0.90;96.10;;;;;;2090071;28;20120;-85
2022/01/08 05:28:06;;;;;;;7.82;5.00;;;0.90;96.10;;;;;;2074566;28;20057;-85
2022/01/08 05:29:07;;;;;;;7.63;4.70;;;0.90;96.10;;;;;;2082133;28;20128;-83
2022/01/08 05:30:08;;;;;;;7.85;4.90;;;0.90;96.10;;;;;;2098629;28;20036;-85
2022/01/08 05:31:09;;;;;;;7.70;5.05;;;0.90;96.10;;;;;;2089788;28;20087;-85
2022/01/08 05:32:16;;;;;;;7.68;4.80;;;0.90;96.10;;;;;;2089576;28;20091;-85
2022/01/08 05:33:16;;;;;;;6.72;4.47;;;0.90;96.10;;;;;;2103136;28;20040;-84
2022/01/08 05:34:17;;;;;;;8.52;5.10;;;0.90;96.10;;;;;;2106407;28;20390;-85
2022/01/08 05:35:18;;;;;;;6.88;4.72;;;0.90;96.10;;;;;;2107076;28;20048;-85
2022/01/08 05:36:18;;;;;;;7.68;5.05;;;0.90;96.10;;;;;;2101176;28;20033;-85
2022/01/08 05:37:19;;;;;;;8.35;4.80;;;0.90;96.10;;;;;;2089936;28;20071;-85
2022/01/08 05:38:20;;;;;;;7.90;5.15;;;0.90;96.10;;;;;;2092306;28;20442;-86
2022/01/08 05:39:21;;;;;;;7.13;4.70;;;0.90;96.10;;;;;;2107186;28;20032;-85
2022/01/08 05:40:22;;;;;;;7.07;4.78;;;0.90;96.10;;;;;;2098121;28;20160;-86
2022/01/08 05:41:23;;;;;;;7.60;4.60;;;0.80;96.10;;;;;;2089935;28;20511;-86